sensor_id;sensor_type;location;lat;lon;timestamp;pressure;altitude;pressure_sealevel;temperature;humidity
69848;BME280;57143;55.940;37.496;2023-05-20T00:02:23;98537.16;;;10.61;100.00
69848;BME280;57143;55.940;37.496;2023-05-20T00:04:50;98539.44;;;10.69;100.00
69848;BME280;57143;55.940;37.496;2023-05-20T00:07:17;98521.16;;;10.59;100.00
69848;BME280;57143;55.940;37.496;2023-05-20T00:09:45;98520.41;;;10.64;100.00
69848;BME280;57143;55.940;37.496;2023-05-20T00:12:13;98488.88;;;10.41;100.00
69848;BME280;57143;55.940;37.496;2023-05-20T00:14:40;98516.47;;;10.55;100.00
69848;BME280;57143;55.940;37.496;2023-05-20T00:17:07;98511.38;;;10.58;100.00
69848;BME280;57143;55.940;37.496;2023-05-20T00:19:35;98506.13;;;10.52;100.00
69848;BME280;57143;55.940;37.496;2023-05-20T00:22:02;98492.09;;;10.38;100.00
69848;BME280;57143;55.940;37.496;2023-05-20T00:24:29;98476.75;;;10.43;100.00
69848;BME280;57143;55.940;37.496;2023-05-20T00:26:56;98480.03;;;10.45;100.00
69848;BME280;57143;55.940;37.496;2023-05-20T00:29:25;98466.06;;;10.37;100.00
69848;BME280;57143;55.940;37.496;2023-05-20T00:31:53;98460.81;;;10.47;100.00
69848;BME280;57143;55.940;37.496;2023-05-20T00:34:20;98459.72;;;10.48;100.00
69848;BME280;57143;55.940;37.496;2023-05-20T00:36:47;98452.13;;;10.45;100.00
69848;BME280;57143;55.940;37.496;2023-05-20T00:39:14;98432.09;;;10.29;100.00
69848;BME280;57143;55.940;37.496;2023-05-20T00:41:41;98446.13;;;10.43;100.00
69848;BME280;57143;55.940;37.496;2023-05-20T00:44:08;98449.16;;;10.46;100.00
69848;BME280;57143;55.940;37.496;2023-05-20T00:46:37;98441.38;;;10.33;100.00
69848;BME280;57143;55.940;37.496;2023-05-20T00:49:04;98443.72;;;10.46;100.00
69848;BME280;57143;55.940;37.496;2023-05-20T00:51:32;98441.28;;;10.28;100.00
69848;BME280;57143;55.940;37.496;2023-05-20T00:54:00;98435.28;;;10.26;100.00
69848;BME280;57143;55.940;37.496;2023-05-20T00:56:28;98434.38;;;10.37;100.00
69848;BME280;57143;55.940;37.496;2023-05-20T00:58:56;98435.69;;;10.35;100.00
69848;BME280;57143;55.940;37.496;2023-05-20T01:01:24;98420.44;;;10.29;100.00
69848;BME280;57143;55.940;37.496;2023-05-20T01:03:52;98424.84;;;10.18;100.00
69848;BME280;57143;55.940;37.496;2023-05-20T01:06:19;98405.19;;;10.23;100.00
69848;BME280;57143;55.940;37.496;2023-05-20T01:08:47;98397.19;;;10.16;100.00
69848;BME280;57143;55.940;37.496;2023-05-20T01:11:22;98387.13;;;10.12;100.00
69848;BME280;57143;55.940;37.496;2023-05-20T01:13:55;98391.06;;;10.21;100.00
69848;BME280;57143;55.940;37.496;2023-05-20T01:16:24;98395.56;;;10.15;100.00
69848;BME280;57143;55.940;37.496;2023-05-20T01:18:54;98383.53;;;10.23;100.00
69848;BME280;57143;55.940;37.496;2023-05-20T01:21:22;98388.44;;;10.26;100.00
69848;BME280;57143;55.940;37.496;2023-05-20T01:23:51;98389.41;;;10.20;100.00
69848;BME280;57143;55.940;37.496;2023-05-20T01:26:18;98393.78;;;10.21;100.00
69848;BME280;57143;55.940;37.496;2023-05-20T01:28:47;98396.72;;;10.19;100.00
69848;BME280;57143;55.940;37.496;2023-05-20T01:31:19;98374.66;;;10.11;100.00
69848;BME280;57143;55.940;37.496;2023-05-20T01:33:51;98352.88;;;9.89;100.00
69848;BME280;57143;55.940;37.496;2023-05-20T01:36:20;98388.56;;;10.03;100.00
69848;BME280;57143;55.940;37.496;2023-05-20T01:38:49;98373.00;;;10.10;100.00
69848;BME280;57143;55.940;37.496;2023-05-20T01:41:18;98370.63;;;10.13;100.00
69848;BME280;57143;55.940;37.496;2023-05-20T01:43:46;98365.47;;;10.12;100.00
69848;BME280;57143;55.940;37.496;2023-05-20T01:46:14;98356.16;;;10.08;100.00
69848;BME280;57143;55.940;37.496;2023-05-20T01:48:41;98337.56;;;10.11;100.00
69848;BME280;57143;55.940;37.496;2023-05-20T01:51:08;98350.63;;;10.14;100.00
69848;BME280;57143;55.940;37.496;2023-05-20T01:53:35;98340.84;;;10.13;100.00
69848;BME280;57143;55.940;37.496;2023-05-20T01:56:04;98343.22;;;10.10;100.00
69848;BME280;57143;55.940;37.496;2023-05-20T01:58:33;98333.31;;;10.15;100.00
69848;BME280;57143;55.940;37.496;2023-05-20T02:01:00;98337.34;;;10.13;100.00
69848;BME280;57143;55.940;37.496;2023-05-20T02:03:28;98331.72;;;10.03;100.00
69848;BME280;57143;55.940;37.496;2023-05-20T02:05:55;98322.88;;;10.07;100.00
69848;BME280;57143;55.940;37.496;2023-05-20T02:08:22;98320.97;;;10.08;100.00
69848;BME280;57143;55.940;37.496;2023-05-20T02:10:49;98324.34;;;10.15;100.00
69848;BME280;57143;55.940;37.496;2023-05-20T02:13:17;98321.25;;;10.23;100.00
69848;BME280;57143;55.940;37.496;2023-05-20T02:15:45;98328.06;;;10.09;100.00
69848;BME280;57143;55.940;37.496;2023-05-20T02:18:13;98325.75;;;10.17;100.00
69848;BME280;57143;55.940;37.496;2023-05-20T02:20:43;98299.81;;;10.05;100.00
69848;BME280;57143;55.940;37.496;2023-05-20T02:23:10;98317.97;;;10.21;100.00
69848;BME280;57143;55.940;37.496;2023-05-20T02:25:37;98319.84;;;10.04;100.00
69848;BME280;57143;55.940;37.496;2023-05-20T02:28:05;98313.59;;;10.20;100.00
69848;BME280;57143;55.940;37.496;2023-05-20T02:30:35;98321.63;;;10.15;100.00
69848;BME280;57143;55.940;37.496;2023-05-20T02:33:04;98309.97;;;9.98;100.00
69848;BME280;57143;55.940;37.496;2023-05-20T02:35:31;98284.66;;;10.04;100.00
69848;BME280;57143;55.940;37.496;2023-05-20T02:37:58;98293.59;;;9.88;100.00
69848;BME280;57143;55.940;37.496;2023-05-20T02:40:25;98274.47;;;9.94;100.00
69848;BME280;57143;55.940;37.496;2023-05-20T02:42:52;98279.41;;;9.97;100.00
69848;BME280;57143;55.940;37.496;2023-05-20T02:45:20;98266.69;;;9.98;100.00
69848;BME280;57143;55.940;37.496;2023-05-20T02:47:47;98247.31;;;10.06;100.00
69848;BME280;57143;55.940;37.496;2023-05-20T02:50:15;98247.00;;;10.02;100.00
69848;BME280;57143;55.940;37.496;2023-05-20T02:52:42;98244.28;;;10.02;100.00
69848;BME280;57143;55.940;37.496;2023-05-20T02:55:10;98239.44;;;10.04;100.00
69848;BME280;57143;55.940;37.496;2023-05-20T02:57:37;98234.44;;;9.96;100.00
69848;BME280;57143;55.940;37.496;2023-05-20T03:00:06;98261.81;;;10.16;100.00
69848;BME280;57143;55.940;37.496;2023-05-20T03:02:36;98278.66;;;10.18;100.00
69848;BME280;57143;55.940;37.496;2023-05-20T03:05:03;98276.84;;;10.24;100.00
69848;BME280;57143;55.940;37.496;2023-05-20T03:07:33;98290.31;;;10.19;100.00
69848;BME280;57143;55.940;37.496;2023-05-20T03:10:02;98279.34;;;10.30;100.00
69848;BME280;57143;55.940;37.496;2023-05-20T03:12:31;98281.53;;;10.28;100.00
69848;BME280;57143;55.940;37.496;2023-05-20T03:14:59;98280.94;;;10.26;100.00
69848;BME280;57143;55.940;37.496;2023-05-20T03:17:26;98282.06;;;10.30;100.00
69848;BME280;57143;55.940;37.496;2023-05-20T03:19:53;98272.94;;;10.36;100.00
69848;BME280;57143;55.940;37.496;2023-05-20T03:22:20;98272.63;;;10.33;100.00
69848;BME280;57143;55.940;37.496;2023-05-20T03:24:49;98275.13;;;10.18;100.00
69848;BME280;57143;55.940;37.496;2023-05-20T03:27:17;98252.72;;;10.22;100.00
69848;BME280;57143;55.940;37.496;2023-05-20T03:29:44;98259.69;;;10.18;100.00
69848;BME280;57143;55.940;37.496;2023-05-20T03:32:13;98210.63;;;10.15;100.00
69848;BME280;57143;55.940;37.496;2023-05-20T03:34:40;98244.09;;;10.47;100.00
69848;BME280;57143;55.940;37.496;2023-05-20T03:37:07;98243.22;;;10.41;100.00
69848;BME280;57143;55.940;37.496;2023-05-20T03:39:34;98249.94;;;10.39;100.00
69848;BME280;57143;55.940;37.496;2023-05-20T03:42:03;98243.41;;;10.35;100.00
69848;BME280;57143;55.940;37.496;2023-05-20T03:44:31;98235.28;;;10.35;100.00
69848;BME280;57143;55.940;37.496;2023-05-20T03:46:58;98230.19;;;10.38;100.00
69848;BME280;57143;55.940;37.496;2023-05-20T03:49:25;98234.84;;;10.43;100.00
69848;BME280;57143;55.940;37.496;2023-05-20T03:51:52;98233.69;;;10.39;100.00
69848;BME280;57143;55.940;37.496;2023-05-20T03:54:20;98229.94;;;10.40;100.00
69848;BME280;57143;55.940;37.496;2023-05-20T03:56:47;98231.72;;;10.56;100.00
69848;BME280;57143;55.940;37.496;2023-05-20T03:59:17;98236.34;;;10.56;100.00
69848;BME280;57143;55.940;37.496;2023-05-20T04:01:47;98232.50;;;10.52;100.00
69848;BME280;57143;55.940;37.496;2023-05-20T04:04:14;98214.88;;;10.49;100.00
69848;BME280;57143;55.940;37.496;2023-05-20T04:06:41;98244.97;;;10.74;100.00
69848;BME280;57143;55.940;37.496;2023-05-20T04:09:08;98246.59;;;10.75;100.00
69848;BME280;57143;55.940;37.496;2023-05-20T04:11:35;98249.25;;;10.70;100.00
69848;BME280;57143;55.940;37.496;2023-05-20T04:14:02;98251.53;;;10.78;100.00
69848;BME280;57143;55.940;37.496;2023-05-20T04:16:31;98243.19;;;10.85;100.00
69848;BME280;57143;55.940;37.496;2023-05-20T04:18:58;98248.25;;;10.76;100.00
69848;BME280;57143;55.940;37.496;2023-05-20T04:21:27;98248.03;;;11.04;100.00
69848;BME280;57143;55.940;37.496;2023-05-20T04:23:54;98255.69;;;11.12;100.00
69848;BME280;57143;55.940;37.496;2023-05-20T04:26:21;98248.75;;;11.00;100.00
69848;BME280;57143;55.940;37.496;2023-05-20T04:28:48;98251.53;;;11.31;100.00
69848;BME280;57143;55.940;37.496;2023-05-20T04:31:16;98265.97;;;11.37;100.00
69848;BME280;57143;55.940;37.496;2023-05-20T04:33:44;98270.25;;;11.33;100.00
69848;BME280;57143;55.940;37.496;2023-05-20T04:36:11;98285.00;;;11.42;100.00
69848;BME280;57143;55.940;37.496;2023-05-20T04:38:40;98291.84;;;11.49;100.00
69848;BME280;57143;55.940;37.496;2023-05-20T04:41:09;98300.84;;;11.55;100.00
69848;BME280;57143;55.940;37.496;2023-05-20T04:43:36;98307.09;;;11.29;100.00
69848;BME280;57143;55.940;37.496;2023-05-20T04:46:04;98310.22;;;11.16;100.00
69848;BME280;57143;55.940;37.496;2023-05-20T04:48:32;98285.19;;;11.09;100.00
69848;BME280;57143;55.940;37.496;2023-05-20T04:51:01;98306.06;;;11.08;100.00
69848;BME280;57143;55.940;37.496;2023-05-20T04:53:28;98280.38;;;11.42;100.00
69848;BME280;57143;55.940;37.496;2023-05-20T04:55:56;98275.38;;;11.56;100.00
69848;BME280;57143;55.940;37.496;2023-05-20T04:58:23;98290.94;;;11.66;100.00
69848;BME280;57143;55.940;37.496;2023-05-20T05:00:51;98291.03;;;11.49;100.00
69848;BME280;57143;55.940;37.496;2023-05-20T05:03:18;98304.59;;;11.49;100.00
69848;BME280;57143;55.940;37.496;2023-05-20T05:05:46;98308.38;;;11.48;100.00
69848;BME280;57143;55.940;37.496;2023-05-20T05:08:14;98320.41;;;11.30;100.00
69848;BME280;57143;55.940;37.496;2023-05-20T05:10:44;98298.91;;;11.50;100.00
69848;BME280;57143;55.940;37.496;2023-05-20T05:13:11;98265.69;;;11.38;100.00
69848;BME280;57143;55.940;37.496;2023-05-20T05:15:38;98311.91;;;11.48;100.00
69848;BME280;57143;55.940;37.496;2023-05-20T05:18:05;98304.94;;;11.57;100.00
69848;BME280;57143;55.940;37.496;2023-05-20T05:20:33;98285.25;;;11.67;100.00
69848;BME280;57143;55.940;37.496;2023-05-20T05:23:00;98286.09;;;11.73;100.00
69848;BME280;57143;55.940;37.496;2023-05-20T05:25:29;98289.16;;;11.81;100.00
69848;BME280;57143;55.940;37.496;2023-05-20T05:27:56;98294.34;;;11.56;100.00
69848;BME280;57143;55.940;37.496;2023-05-20T05:30:23;98322.00;;;11.80;100.00
69848;BME280;57143;55.940;37.496;2023-05-20T05:32:50;98319.59;;;11.83;100.00
69848;BME280;57143;55.940;37.496;2023-05-20T05:35:17;98314.03;;;12.05;100.00
69848;BME280;57143;55.940;37.496;2023-05-20T05:37:45;98313.63;;;12.23;100.00
69848;BME280;57143;55.940;37.496;2023-05-20T05:40:12;98333.28;;;12.35;100.00
69848;BME280;57143;55.940;37.496;2023-05-20T05:42:41;98341.78;;;12.48;100.00
69848;BME280;57143;55.940;37.496;2023-05-20T05:45:09;98361.03;;;12.42;100.00
69848;BME280;57143;55.940;37.496;2023-05-20T05:47:36;98358.50;;;12.77;100.00
69848;BME280;57143;55.940;37.496;2023-05-20T05:50:04;98385.34;;;13.05;100.00
69848;BME280;57143;55.940;37.496;2023-05-20T05:54:58;98411.56;;;13.26;100.00
69848;BME280;57143;55.940;37.496;2023-05-20T05:57:26;98415.50;;;13.75;100.00
69848;BME280;57143;55.940;37.496;2023-05-20T05:59:54;98462.88;;;13.64;100.00
69848;BME280;57143;55.940;37.496;2023-05-20T06:02:21;98478.25;;;14.11;100.00
69848;BME280;57143;55.940;37.496;2023-05-20T06:04:48;98488.69;;;14.69;100.00
69848;BME280;57143;55.940;37.496;2023-05-20T06:07:16;98520.59;;;14.93;100.00
69848;BME280;57143;55.940;37.496;2023-05-20T06:09:43;98544.31;;;14.88;100.00
69848;BME280;57143;55.940;37.496;2023-05-20T06:12:10;98544.31;;;14.83;100.00
69848;BME280;57143;55.940;37.496;2023-05-20T06:14:37;98581.97;;;14.81;100.00
69848;BME280;57143;55.940;37.496;2023-05-20T06:17:06;98581.69;;;15.23;100.00
69848;BME280;57143;55.940;37.496;2023-05-20T06:19:33;98601.34;;;15.20;100.00
69848;BME280;57143;55.940;37.496;2023-05-20T06:22:00;98634.38;;;15.03;100.00
69848;BME280;57143;55.940;37.496;2023-05-20T06:24:27;98638.47;;;15.31;100.00
69848;BME280;57143;55.940;37.496;2023-05-20T06:26:55;98622.09;;;15.61;100.00
69848;BME280;57143;55.940;37.496;2023-05-20T06:29:22;98628.38;;;15.36;100.00
69848;BME280;57143;55.940;37.496;2023-05-20T06:31:49;98622.63;;;15.68;100.00
69848;BME280;57143;55.940;37.496;2023-05-20T06:34:18;98662.44;;;15.99;100.00
69848;BME280;57143;55.940;37.496;2023-05-20T06:36:45;98697.69;;;16.05;100.00
69848;BME280;57143;55.940;37.496;2023-05-20T06:39:12;98742.53;;;15.99;100.00
69848;BME280;57143;55.940;37.496;2023-05-20T06:41:39;98757.28;;;15.93;100.00
69848;BME280;57143;55.940;37.496;2023-05-20T06:44:07;98746.34;;;16.03;100.00
69848;BME280;57143;55.940;37.496;2023-05-20T06:46:34;98790.09;;;15.98;100.00
69848;BME280;57143;55.940;37.496;2023-05-20T06:49:01;98772.59;;;16.09;100.00
69848;BME280;57143;55.940;37.496;2023-05-20T06:51:30;98740.09;;;15.63;100.00
69848;BME280;57143;55.940;37.496;2023-05-20T06:53:57;98696.22;;;16.38;100.00
69848;BME280;57143;55.940;37.496;2023-05-20T06:56:24;98691.13;;;16.01;100.00
69848;BME280;57143;55.940;37.496;2023-05-20T06:58:51;98683.44;;;16.08;100.00
69848;BME280;57143;55.940;37.496;2023-05-20T07:01:19;98653.53;;;16.52;100.00
69848;BME280;57143;55.940;37.496;2023-05-20T07:03:46;98674.22;;;17.17;100.00
69848;BME280;57143;55.940;37.496;2023-05-20T07:06:13;98842.06;;;17.71;100.00
69848;BME280;57143;55.940;37.496;2023-05-20T07:08:42;98961.84;;;17.66;100.00
69848;BME280;57143;55.940;37.496;2023-05-20T07:11:09;99118.84;;;17.86;100.00
69848;BME280;57143;55.940;37.496;2023-05-20T07:13:36;99211.81;;;17.38;100.00
69848;BME280;57143;55.940;37.496;2023-05-20T07:16:04;99234.75;;;15.88;100.00
69848;BME280;57143;55.940;37.496;2023-05-20T07:18:32;99253.56;;;16.78;100.00
69848;BME280;57143;55.940;37.496;2023-05-20T07:20:59;99405.09;;;17.65;100.00
69848;BME280;57143;55.940;37.496;2023-05-20T07:23:27;99500.66;;;17.52;100.00
69848;BME280;57143;55.940;37.496;2023-05-20T07:25:55;99484.16;;;17.42;100.00
69848;BME280;57143;55.940;37.496;2023-05-20T07:28:22;99513.56;;;17.09;100.00
69848;BME280;57143;55.940;37.496;2023-05-20T07:30:50;99489.50;;;17.16;100.00
69848;BME280;57143;55.940;37.496;2023-05-20T07:33:17;99475.22;;;17.09;100.00
69848;BME280;57143;55.940;37.496;2023-05-20T07:35:45;99460.59;;;16.89;100.00
69848;BME280;57143;55.940;37.496;2023-05-20T07:38:12;99493.53;;;17.04;100.00
69848;BME280;57143;55.940;37.496;2023-05-20T07:40:39;99477.88;;;16.31;100.00
69848;BME280;57143;55.940;37.496;2023-05-20T07:43:08;99452.69;;;15.97;100.00
69848;BME280;57143;55.940;37.496;2023-05-20T07:45:35;99457.19;;;16.72;100.00
69848;BME280;57143;55.940;37.496;2023-05-20T07:48:04;99468.00;;;16.57;100.00
69848;BME280;57143;55.940;37.496;2023-05-20T07:50:33;99506.03;;;17.31;100.00
69848;BME280;57143;55.940;37.496;2023-05-20T07:53:00;99517.53;;;17.33;100.00
69848;BME280;57143;55.940;37.496;2023-05-20T07:55:27;99514.94;;;17.54;100.00
69848;BME280;57143;55.940;37.496;2023-05-20T07:57:55;99505.72;;;17.28;100.00
69848;BME280;57143;55.940;37.496;2023-05-20T08:00:24;99544.38;;;17.31;100.00
69848;BME280;57143;55.940;37.496;2023-05-20T08:02:51;99591.31;;;17.08;100.00
69848;BME280;57143;55.940;37.496;2023-05-20T08:05:18;99466.16;;;16.67;100.00
69848;BME280;57143;55.940;37.496;2023-05-20T08:07:47;99523.31;;;17.37;100.00
69848;BME280;57143;55.940;37.496;2023-05-20T08:10:14;99561.13;;;17.40;100.00
69848;BME280;57143;55.940;37.496;2023-05-20T08:12:41;99579.84;;;17.48;100.00
69848;BME280;57143;55.940;37.496;2023-05-20T08:15:09;99537.16;;;16.26;100.00
69848;BME280;57143;55.940;37.496;2023-05-20T08:17:37;99496.63;;;16.44;100.00
69848;BME280;57143;55.940;37.496;2023-05-20T08:20:05;99425.22;;;15.82;100.00
69848;BME280;57143;55.940;37.496;2023-05-20T08:22:34;99432.63;;;15.87;100.00
69848;BME280;57143;55.940;37.496;2023-05-20T08:25:02;99463.72;;;16.07;100.00
69848;BME280;57143;55.940;37.496;2023-05-20T08:27:30;99460.81;;;15.66;100.00
69848;BME280;57143;55.940;37.496;2023-05-20T08:29:57;99405.03;;;15.62;100.00
69848;BME280;57143;55.940;37.496;2023-05-20T08:32:24;99412.19;;;16.26;100.00
69848;BME280;57143;55.940;37.496;2023-05-20T08:34:53;99527.50;;;15.91;100.00
69848;BME280;57143;55.940;37.496;2023-05-20T08:37:20;99479.34;;;16.12;100.00
69848;BME280;57143;55.940;37.496;2023-05-20T08:39:47;99555.00;;;16.86;100.00
69848;BME280;57143;55.940;37.496;2023-05-20T08:42:14;99470.97;;;16.50;100.00
69848;BME280;57143;55.940;37.496;2023-05-20T08:44:46;99554.09;;;16.76;100.00
69848;BME280;57143;55.940;37.496;2023-05-20T08:47:13;99615.38;;;16.22;100.00
69848;BME280;57143;55.940;37.496;2023-05-20T08:49:40;99621.97;;;16.74;100.00
69848;BME280;57143;55.940;37.496;2023-05-20T08:52:10;99579.50;;;16.45;100.00
69848;BME280;57143;55.940;37.496;2023-05-20T08:54:43;99561.56;;;16.05;100.00
69848;BME280;57143;55.940;37.496;2023-05-20T08:57:10;99508.06;;;16.41;100.00
69848;BME280;57143;55.940;37.496;2023-05-20T08:59:41;99584.72;;;16.73;100.00
69848;BME280;57143;55.940;37.496;2023-05-20T09:02:09;99565.94;;;16.28;100.00
69848;BME280;57143;55.940;37.496;2023-05-20T09:04:36;99520.75;;;16.26;100.00
69848;BME280;57143;55.940;37.496;2023-05-20T09:07:04;99497.00;;;16.53;100.00
69848;BME280;57143;55.940;37.496;2023-05-20T09:09:33;99517.38;;;16.67;100.00
69848;BME280;57143;55.940;37.496;2023-05-20T09:12:01;99605.59;;;17.10;100.00
69848;BME280;57143;55.940;37.496;2023-05-20T09:14:29;99641.84;;;16.64;100.00
69848;BME280;57143;55.940;37.496;2023-05-20T09:16:56;99618.84;;;16.17;100.00
69848;BME280;57143;55.940;37.496;2023-05-20T09:19:24;99567.31;;;16.04;100.00
69848;BME280;57143;55.940;37.496;2023-05-20T09:21:52;99534.81;;;16.07;100.00
69848;BME280;57143;55.940;37.496;2023-05-20T09:24:22;99557.94;;;16.22;100.00
69848;BME280;57143;55.940;37.496;2023-05-20T09:26:51;99559.03;;;15.99;100.00
69848;BME280;57143;55.940;37.496;2023-05-20T09:29:19;99598.19;;;15.61;100.00
69848;BME280;57143;55.940;37.496;2023-05-20T09:31:46;99463.72;;;15.38;100.00
69848;BME280;57143;55.940;37.496;2023-05-20T09:34:14;99388.72;;;15.45;100.00
69848;BME280;57143;55.940;37.496;2023-05-20T09:36:42;99481.53;;;15.62;100.00
69848;BME280;57143;55.940;37.496;2023-05-20T09:39:13;99539.47;;;15.64;100.00
69848;BME280;57143;55.940;37.496;2023-05-20T09:41:48;99549.91;;;15.88;100.00
69848;BME280;57143;55.940;37.496;2023-05-20T09:44:21;99547.69;;;15.85;100.00
69848;BME280;57143;55.940;37.496;2023-05-20T09:46:49;99565.91;;;15.80;100.00
69848;BME280;57143;55.940;37.496;2023-05-20T09:49:18;99598.84;;;15.68;100.00
69848;BME280;57143;55.940;37.496;2023-05-20T09:51:47;99692.16;;;15.77;100.00
69848;BME280;57143;55.940;37.496;2023-05-20T09:54:17;99759.28;;;15.89;100.00
69848;BME280;57143;55.940;37.496;2023-05-20T09:56:45;99736.03;;;15.87;100.00
69848;BME280;57143;55.940;37.496;2023-05-20T09:59:14;99756.72;;;15.99;100.00
69848;BME280;57143;55.940;37.496;2023-05-20T10:01:43;99774.78;;;16.00;100.00
69848;BME280;57143;55.940;37.496;2023-05-20T10:04:12;99772.09;;;16.44;100.00
69848;BME280;57143;55.940;37.496;2023-05-20T10:06:59;99745.22;;;16.19;100.00
69848;BME280;57143;55.940;37.496;2023-05-20T10:09:50;99773.59;;;16.13;100.00
69848;BME280;57143;55.940;37.496;2023-05-20T10:12:28;99769.84;;;16.19;100.00
69848;BME280;57143;55.940;37.496;2023-05-20T10:15:05;99762.13;;;15.94;100.00
69848;BME280;57143;55.940;37.496;2023-05-20T10:17:40;99710.28;;;15.50;100.00
69848;BME280;57143;55.940;37.496;2023-05-20T10:20:10;99685.88;;;15.60;100.00
69848;BME280;57143;55.940;37.496;2023-05-20T10:22:38;99697.69;;;15.82;100.00
69848;BME280;57143;55.940;37.496;2023-05-20T10:25:11;99725.22;;;15.97;100.00
69848;BME280;57143;55.940;37.496;2023-05-20T10:27:42;99698.66;;;15.92;100.00
69848;BME280;57143;55.940;37.496;2023-05-20T10:30:19;99679.72;;;16.07;100.00
69848;BME280;57143;55.940;37.496;2023-05-20T10:33:02;99653.88;;;15.77;100.00
69848;BME280;57143;55.940;37.496;2023-05-20T10:35:30;99701.59;;;16.07;100.00
69848;BME280;57143;55.940;37.496;2023-05-20T10:38:06;99684.22;;;15.97;100.00
69848;BME280;57143;55.940;37.496;2023-05-20T10:40:34;99701.22;;;15.99;100.00
69848;BME280;57143;55.940;37.496;2023-05-20T10:43:08;99719.56;;;16.03;100.00
69848;BME280;57143;55.940;37.496;2023-05-20T10:45:46;99754.53;;;16.01;100.00
69848;BME280;57143;55.940;37.496;2023-05-20T10:48:23;99772.38;;;16.26;100.00
69848;BME280;57143;55.940;37.496;2023-05-20T10:50:53;99802.94;;;15.84;100.00
69848;BME280;57143;55.940;37.496;2023-05-20T10:53:22;99683.16;;;15.60;100.00
69848;BME280;57143;55.940;37.496;2023-05-20T10:55:51;99680.97;;;15.62;100.00
69848;BME280;57143;55.940;37.496;2023-05-20T10:58:20;99672.94;;;15.39;100.00
69848;BME280;57143;55.940;37.496;2023-05-20T11:00:48;99626.81;;;14.59;100.00
69848;BME280;57143;55.940;37.496;2023-05-20T11:03:16;99536.81;;;14.15;100.00
69848;BME280;57143;55.940;37.496;2023-05-20T11:05:46;99466.75;;;14.15;100.00
69848;BME280;57143;55.940;37.496;2023-05-20T11:08:13;99509.16;;;13.94;100.00
69848;BME280;57143;55.940;37.496;2023-05-20T11:10:41;99536.41;;;13.94;100.00
69848;BME280;57143;55.940;37.496;2023-05-20T11:13:11;99485.88;;;14.04;100.00
69848;BME280;57143;55.940;37.496;2023-05-20T11:15:39;99544.44;;;14.29;100.00
69848;BME280;57143;55.940;37.496;2023-05-20T11:18:09;99580.22;;;14.33;100.00
69848;BME280;57143;55.940;37.496;2023-05-20T11:20:36;99652.06;;;14.66;100.00
69848;BME280;57143;55.940;37.496;2023-05-20T11:23:05;99650.09;;;14.50;100.00
69848;BME280;57143;55.940;37.496;2023-05-20T11:25:37;99665.19;;;14.69;100.00
69848;BME280;57143;55.940;37.496;2023-05-20T11:28:08;99615.69;;;14.33;100.00
69848;BME280;57143;55.940;37.496;2023-05-20T11:30:36;99576.91;;;14.03;100.00
69848;BME280;57143;55.940;37.496;2023-05-20T11:33:03;99515.25;;;14.13;100.00
69848;BME280;57143;55.940;37.496;2023-05-20T11:35:31;99590.03;;;14.62;100.00
69848;BME280;57143;55.940;37.496;2023-05-20T11:38:01;99671.84;;;14.73;100.00
69848;BME280;57143;55.940;37.496;2023-05-20T11:40:31;99721.56;;;14.64;100.00
69848;BME280;57143;55.940;37.496;2023-05-20T11:43:00;99755.31;;;14.74;100.00
69848;BME280;57143;55.940;37.496;2023-05-20T11:45:37;99779.50;;;14.82;100.00
69848;BME280;57143;55.940;37.496;2023-05-20T11:48:05;99790.22;;;14.72;100.00
69848;BME280;57143;55.940;37.496;2023-05-20T11:50:34;99809.84;;;14.58;100.00
69848;BME280;57143;55.940;37.496;2023-05-20T11:53:05;99798.16;;;14.74;100.00
69848;BME280;57143;55.940;37.496;2023-05-20T11:55:43;99781.16;;;14.83;100.00
69848;BME280;57143;55.940;37.496;2023-05-20T11:58:11;99791.06;;;15.01;100.00
69848;BME280;57143;55.940;37.496;2023-05-20T12:00:41;99809.53;;;15.11;100.00
69848;BME280;57143;55.940;37.496;2023-05-20T12:03:08;99805.41;;;15.08;100.00
69848;BME280;57143;55.940;37.496;2023-05-20T12:05:35;99785.69;;;15.06;100.00
69848;BME280;57143;55.940;37.496;2023-05-20T12:08:03;99789.47;;;15.33;100.00
69848;BME280;57143;55.940;37.496;2023-05-20T12:10:30;99800.03;;;15.41;100.00
69848;BME280;57143;55.940;37.496;2023-05-20T12:12:59;99799.56;;;15.33;100.00
69848;BME280;57143;55.940;37.496;2023-05-20T12:15:28;99821.50;;;15.66;100.00
69848;BME280;57143;55.940;37.496;2023-05-20T12:17:55;99784.31;;;15.65;100.00
69848;BME280;57143;55.940;37.496;2023-05-20T12:20:23;99793.28;;;15.77;100.00
69848;BME280;57143;55.940;37.496;2023-05-20T12:22:51;99813.72;;;15.91;100.00
69848;BME280;57143;55.940;37.496;2023-05-20T12:25:19;99846.59;;;16.12;100.00
69848;BME280;57143;55.940;37.496;2023-05-20T12:27:47;99866.41;;;16.19;100.00
69848;BME280;57143;55.940;37.496;2023-05-20T12:30:18;99880.16;;;16.08;100.00
69848;BME280;57143;55.940;37.496;2023-05-20T12:32:46;99851.72;;;15.76;100.00
69848;BME280;57143;55.940;37.496;2023-05-20T12:35:14;99829.00;;;15.42;100.00
69848;BME280;57143;55.940;37.496;2023-05-20T12:37:43;99787.63;;;15.50;100.00
69848;BME280;57143;55.940;37.496;2023-05-20T12:40:11;99771.47;;;15.49;100.00
69848;BME280;57143;55.940;37.496;2023-05-20T12:42:40;99761.13;;;15.51;100.00
69848;BME280;57143;55.940;37.496;2023-05-20T12:45:08;99715.72;;;15.33;100.00
69848;BME280;57143;55.940;37.496;2023-05-20T12:47:37;99722.97;;;15.56;100.00
69848;BME280;57143;55.940;37.496;2023-05-20T12:50:05;99719.97;;;15.57;100.00